Time;durP1;ratioP1;P1;durP2;ratioP2;P2;SDS_P1;SDS_P2;PMS_P1;PMS_P2;Temp;Humidity;BMP_temperature;BMP_pressure;BME280_temperature;BME280_humidity;BME280_pressure;Samples;Min_cycle;Max_cycle;Signal;HPM_P1;HPM_P2
2023/06/17 00:01:27;;;;;;;;;;;17.10;68.70;;;;;;5067527;28;19925;-40
2023/06/17 00:03:54;;;;;;;;;;;17.10;68.40;;;;;;5053060;28;19978;-40
2023/06/17 00:06:21;;;;;;;;;;;17.10;68.80;;;;;;5073646;28;20364;-42
2023/06/17 00:08:47;;;;;;;;;;;17.10;69.10;;;;;;5073294;28;20020;-40
2023/06/17 00:11:14;;;;;;;;;;;17.00;69.30;;;;;;5076096;28;19978;-41
2023/06/17 00:13:42;;;;;;;;;;;17.00;70.10;;;;;;5081402;28;19972;-41
2023/06/17 00:16:09;;;;;;;;;;;16.90;70.20;;;;;;5055285;28;19971;-36
2023/06/17 00:18:36;;;;;;;;;;;16.90;69.60;;;;;;5037915;28;19931;-40
2023/06/17 00:21:02;;;;;;;;;;;16.90;70.00;;;;;;5082739;28;19928;-40
2023/06/17 00:23:30;;;;;;;;;;;16.80;70.00;;;;;;5096071;28;19924;-41
2023/06/17 00:25:56;;;;;;;;;;;16.80;70.20;;;;;;5088751;28;19925;-41
2023/06/17 00:28:23;;;;;;;;;;;16.70;70.30;;;;;;5076041;28;19978;-40
2023/06/17 00:30:51;;;;;;;;;;;16.70;71.60;;;;;;5077287;28;19924;-40
2023/06/17 00:33:17;;;;;;;;;;;16.70;71.00;;;;;;5085213;28;19975;-39
2023/06/17 00:35:44;;;;;;;;;;;16.60;72.20;;;;;;5074565;28;20357;-40
2023/06/17 00:38:11;;;;;;;;;;;16.60;72.70;;;;;;5057323;28;20372;-40
2023/06/17 00:40:37;;;;;;;;;;;16.50;71.90;;;;;;5057263;28;19972;-39
2023/06/17 00:43:04;;;;;;;;;;;16.50;72.20;;;;;;5085574;28;19975;-40
2023/06/17 00:45:38;;;;;;;;;;;16.50;72.30;;;;;;5092415;28;20335;-40
2023/06/17 00:48:07;;;;;;;;;;;16.50;72.30;;;;;;5092403;28;19934;-40
2023/06/17 00:50:36;;;;;;;;;;;16.40;72.70;;;;;;5057555;28;19949;-41
2023/06/17 00:53:02;;;;;;;;;;;16.40;72.60;;;;;;5074264;28;20307;-40
2023/06/17 00:55:30;;;;;;;;;;;16.30;73.40;;;;;;5069849;28;19979;-41
2023/06/17 00:57:57;;;;;;;;;;;16.30;72.70;;;;;;5085118;28;19973;-41
2023/06/17 01:00:24;;;;;;;;;;;16.30;72.70;;;;;;5080393;28;20421;-41
2023/06/17 01:02:50;;;;;;;;;;;16.30;72.70;;;;;;5087388;28;20028;-39
2023/06/17 01:05:18;;;;;;;;;;;16.30;73.50;;;;;;5072687;28;19932;-41
2023/06/17 01:08:08;;;;;;;;;;;16.30;73.20;;;;;;5073984;28;19967;-41
2023/06/17 01:10:35;;;;;;;;;;;16.30;73.00;;;;;;5071629;28;19928;-41
2023/06/17 01:13:02;;;;;;;;;;;16.30;73.20;;;;;;5073816;28;19930;-39
2023/06/17 01:15:29;;;;;;;;;;;16.30;74.10;;;;;;5056594;28;19924;-41
2023/06/17 01:17:56;;;;;;;;;;;16.30;74.60;;;;;;5074645;28;19924;-38
2023/06/17 01:20:26;;;;;;;;;;;16.40;75.10;;;;;;5073738;28;19928;-40
2023/06/17 01:22:54;;;;;;;;;;;16.30;75.80;;;;;;5074219;28;19925;-40
2023/06/17 01:25:29;;;;;;;;;;;16.30;75.70;;;;;;5071598;28;19928;-41
2023/06/17 01:27:59;;;;;;;;;;;16.30;76.40;;;;;;5094399;28;20006;-40
2023/06/17 01:30:28;;;;;;;;;;;16.30;76.50;;;;;;5092606;28;19939;-39
2023/06/17 01:32:55;;;;;;;;;;;16.20;77.60;;;;;;5073506;28;19929;-40
2023/06/17 01:35:21;;;;;;;;;;;16.30;77.40;;;;;;5077450;28;19967;-40
2023/06/17 01:37:49;;;;;;;;;;;16.20;77.70;;;;;;5056246;28;20019;-39
2023/06/17 01:40:16;;;;;;;;;;;16.30;78.40;;;;;;5073852;28;19931;-40
2023/06/17 01:42:44;;;;;;;;;;;16.30;78.50;;;;;;5076566;28;20423;-40
2023/06/17 01:45:11;;;;;;;;;;;16.30;79.10;;;;;;5055533;28;19977;-41
2023/06/17 01:47:38;;;;;;;;;;;16.30;78.70;;;;;;5074004;28;19974;-40
2023/06/17 01:50:05;;;;;;;;;;;16.30;79.50;;;;;;5073407;28;20396;-40
2023/06/17 01:52:31;;;;;;;;;;;16.30;78.70;;;;;;5073705;28;20368;-41
2023/06/17 01:54:58;;;;;;;;;;;16.30;79.10;;;;;;5075786;28;19982;-41
2023/06/17 01:57:25;;;;;;;;;;;16.30;79.30;;;;;;5073443;28;19974;-40
2023/06/17 01:59:53;;;;;;;;;;;16.40;79.70;;;;;;5055637;28;20019;-41
2023/06/17 02:02:20;;;;;;;;;;;16.40;83.20;;;;;;5055102;28;20012;-40
2023/06/17 02:04:47;;;;;;;;;;;16.30;82.10;;;;;;5072282;28;19970;-39
2023/06/17 02:07:16;;;;;;;;;;;16.40;82.20;;;;;;5073130;28;19925;-37
2023/06/17 02:09:42;;;;;;;;;;;16.40;84.10;;;;;;5089245;28;20007;-41
2023/06/17 02:12:11;;;;;;;;;;;16.40;83.40;;;;;;5065456;28;20471;-40
2023/06/17 02:14:37;;;;;;;;;;;16.40;83.90;;;;;;5055573;28;19978;-37
2023/06/17 02:17:08;;;;;;;;;;;16.40;82.00;;;;;;5071850;28;19925;-41
2023/06/17 02:19:35;;;;;;;;;;;16.40;82.50;;;;;;5073197;28;20395;-41
2023/06/17 02:22:02;;;;;;;;;;;16.50;82.70;;;;;;5079080;28;19932;-40
2023/06/17 02:24:28;;;;;;;;;;;16.50;82.80;;;;;;5073060;28;19932;-41
2023/06/17 02:26:56;;;;;;;;;;;16.60;83.70;;;;;;5067106;28;19925;-40
2023/06/17 02:29:22;;;;;;;;;;;16.50;86.00;;;;;;5038080;28;20006;-40
2023/06/17 02:31:49;;;;;;;;;;;16.50;85.90;;;;;;5078790;28;19976;-40
2023/06/17 02:34:17;;;;;;;;;;;16.50;90.00;;;;;;5067441;28;20013;-40
2023/06/17 02:36:44;;;;;;;;;;;16.40;87.90;;;;;;5072770;28;20399;-41
2023/06/17 02:39:11;;;;;;;;;;;16.40;87.80;;;;;;5058677;28;20179;-39
2023/06/17 02:41:38;;;;;;;;;;;16.40;90.00;;;;;;5054478;28;19967;-40
2023/06/17 02:44:04;;;;;;;;;;;16.30;87.80;;;;;;5072229;28;19971;-40
2023/06/17 02:46:31;;;;;;;;;;;16.40;87.60;;;;;;5054504;28;20059;-40
2023/06/17 02:48:58;;;;;;;;;;;16.40;89.80;;;;;;5053851;28;19932;-39
2023/06/17 02:51:27;;;;;;;;;;;16.40;89.70;;;;;;5059638;28;20034;-39
2023/06/17 02:53:54;;;;;;;;;;;16.40;87.20;;;;;;5092575;28;19967;-40
2023/06/17 02:56:21;;;;;;;;;;;16.50;86.50;;;;;;5092500;28;19924;-40
2023/06/17 02:58:47;;;;;;;;;;;16.50;87.10;;;;;;5074803;28;20360;-40
2023/06/17 03:01:14;;;;;;;;;;;16.50;87.50;;;;;;5084484;28;20025;-39
2023/06/17 03:03:41;;;;;;;;;;;16.50;86.80;;;;;;5053905;28;19925;-39
2023/06/17 03:06:09;;;;;;;;;;;16.60;86.90;;;;;;5073145;28;19924;-40
2023/06/17 03:08:39;;;;;;;;;;;16.60;87.90;;;;;;5087989;28;19932;-39
2023/06/17 03:11:05;;;;;;;;;;;16.60;87.20;;;;;;5088852;28;20007;-40
2023/06/17 03:13:32;;;;;;;;;;;16.60;88.10;;;;;;5056450;28;19973;-41
2023/06/17 03:15:59;;;;;;;;;;;16.60;90.10;;;;;;5071419;28;19991;-40
2023/06/17 03:18:26;;;;;;;;;;;16.50;88.20;;;;;;5056146;28;20002;-40
2023/06/17 03:20:53;;;;;;;;;;;16.50;89.00;;;;;;5063250;28;19932;-41
2023/06/17 03:23:21;;;;;;;;;;;16.50;89.20;;;;;;5074311;28;19930;-40
2023/06/17 03:25:49;;;;;;;;;;;16.50;89.30;;;;;;5047801;28;19924;-41
2023/06/17 03:28:16;;;;;;;;;;;16.50;88.70;;;;;;5051846;28;20448;-40
2023/06/17 03:30:43;;;;;;;;;;;16.50;89.60;;;;;;5052282;28;19976;-40
2023/06/17 03:33:09;;;;;;;;;;;16.50;91.40;;;;;;5034424;28;20336;-39
2023/06/17 03:35:36;;;;;;;;;;;16.50;90.70;;;;;;5034520;28;19925;-40
2023/06/17 03:38:03;;;;;;;;;;;16.50;90.40;;;;;;5055840;28;19960;-39
2023/06/17 03:40:29;;;;;;;;;;;16.40;91.30;;;;;;5071652;28;19928;-40
2023/06/17 03:42:57;;;;;;;;;;;16.40;92.10;;;;;;5071183;28;20295;-39
2023/06/17 03:45:24;;;;;;;;;;;16.40;91.70;;;;;;5072105;28;20011;-40
2023/06/17 03:47:50;;;;;;;;;;;16.40;92.30;;;;;;5053389;28;19947;-40
2023/06/17 03:50:17;;;;;;;;;;;16.40;91.80;;;;;;5062202;28;19928;-40
2023/06/17 03:52:44;;;;;;;;;;;16.30;91.60;;;;;;5058655;28;19967;-39
2023/06/17 03:55:10;;;;;;;;;;;16.30;92.50;;;;;;5091897;28;19967;-40
2023/06/17 03:57:37;;;;;;;;;;;16.30;92.40;;;;;;5064127;28;19932;-39
2023/06/17 04:00:06;;;;;;;;;;;16.30;92.80;;;;;;5073449;28;20023;-40
2023/06/17 04:02:33;;;;;;;;;;;16.30;93.10;;;;;;5070073;28;20372;-40
2023/06/17 04:05:00;;;;;;;;;;;16.30;92.60;;;;;;5071561;28;19968;-40
2023/06/17 04:07:27;;;;;;;;;;;16.30;92.80;;;;;;5071447;28;19924;-40
2023/06/17 04:09:54;;;;;;;;;;;16.30;92.50;;;;;;5071624;28;20015;-40
2023/06/17 04:12:20;;;;;;;;;;;16.30;93.30;;;;;;5071751;28;20015;-39
2023/06/17 04:14:47;;;;;;;;;;;16.30;92.80;;;;;;5054003;28;20047;-39
2023/06/17 04:17:19;;;;;;;;;;;16.30;93.50;;;;;;5086685;28;20348;-39
2023/06/17 04:19:46;;;;;;;;;;;16.30;94.10;;;;;;5033794;28;20364;-40
2023/06/17 04:22:12;;;;;;;;;;;16.30;93.40;;;;;;5066309;28;19928;-40
2023/06/17 04:24:39;;;;;;;;;;;16.30;93.20;;;;;;5071604;28;19971;-40
2023/06/17 04:27:07;;;;;;;;;;;16.30;93.90;;;;;;5071491;28;19934;-40
2023/06/17 04:29:34;;;;;;;;;;;16.30;93.40;;;;;;5071366;28;19924;-40
2023/06/17 04:32:02;;;;;;;;;;;16.40;94.40;;;;;;5053582;28;19931;-39
2023/06/17 04:34:30;;;;;;;;;;;16.40;94.30;;;;;;5053712;28;19968;-41
2023/06/17 04:36:57;;;;;;;;;;;16.40;94.20;;;;;;5070641;28;20368;-42
2023/06/17 04:39:24;;;;;;;;;;;16.40;94.20;;;;;;5063186;28;19976;-41
2023/06/17 04:41:51;;;;;;;;;;;16.40;93.20;;;;;;5048775;28;19931;-41
2023/06/17 04:44:18;;;;;;;;;;;16.40;93.20;;;;;;5086443;28;19978;-41
2023/06/17 04:46:45;;;;;;;;;;;16.50;93.90;;;;;;5073748;28;19924;-41
2023/06/17 04:49:11;;;;;;;;;;;16.50;94.00;;;;;;5091485;28;19931;-41
2023/06/17 04:51:40;;;;;;;;;;;16.50;94.00;;;;;;5073593;28;19993;-36
2023/06/17 04:54:07;;;;;;;;;;;16.50;94.00;;;;;;5074646;28;19955;-41
2023/06/17 04:56:34;;;;;;;;;;;16.40;94.50;;;;;;5071198;28;20022;-40
2023/06/17 04:59:01;;;;;;;;;;;16.50;94.10;;;;;;5071597;28;19932;-37
2023/06/17 05:01:28;;;;;;;;;;;16.50;94.70;;;;;;5067129;28;19972;-41
2023/06/17 05:03:54;;;;;;;;;;;16.50;94.10;;;;;;5055004;28;19929;-41
2023/06/17 05:06:21;;;;;;;;;;;16.50;94.50;;;;;;5045339;28;19963;-40
2023/06/17 05:08:49;;;;;;;;;;;16.50;95.00;;;;;;5074697;28;20027;-40
2023/06/17 05:11:16;;;;;;;;;;;16.50;95.60;;;;;;5088441;28;20303;-40
2023/06/17 05:13:42;;;;;;;;;;;16.50;95.90;;;;;;5061694;28;20429;-41
2023/06/17 05:16:09;;;;;;;;;;;16.50;95.20;;;;;;5056130;28;20333;-41
2023/06/17 05:18:36;;;;;;;;;;;16.50;95.70;;;;;;5056407;28;19924;-41
2023/06/17 05:21:03;;;;;;;;;;;16.50;96.40;;;;;;5074115;28;19979;-39
2023/06/17 05:23:30;;;;;;;;;;;16.50;96.20;;;;;;5073386;28;19983;-41
2023/06/17 05:25:58;;;;;;;;;;;16.50;95.60;;;;;;5056664;28;19931;-41
2023/06/17 05:28:24;;;;;;;;;;;16.50;95.70;;;;;;5074052;28;20025;-41
2023/06/17 05:30:51;;;;;;;;;;;16.60;95.20;;;;;;5047804;28;20020;-40
2023/06/17 05:33:17;;;;;;;;;;;16.60;95.20;;;;;;5042943;28;20016;-41
2023/06/17 05:35:44;;;;;;;;;;;16.60;96.20;;;;;;5054264;28;20304;-41
2023/06/17 05:38:11;;;;;;;;;;;16.70;96.30;;;;;;5039819;28;19932;-41
2023/06/17 05:40:37;;;;;;;;;;;16.70;96.10;;;;;;5082497;28;19924;-39
2023/06/17 05:43:05;;;;;;;;;;;16.70;96.60;;;;;;5051168;28;19931;-40
2023/06/17 05:45:32;;;;;;;;;;;16.80;95.80;;;;;;5072715;28;20363;-41
2023/06/17 05:47:59;;;;;;;;;;;16.80;96.00;;;;;;5075890;28;20019;-41
2023/06/17 05:50:25;;;;;;;;;;;16.90;95.70;;;;;;5083692;28;19977;-36
2023/06/17 05:52:52;;;;;;;;;;;16.90;96.10;;;;;;5073710;28;19932;-41
2023/06/17 05:55:18;;;;;;;;;;;17.00;95.80;;;;;;5056043;28;19972;-41
2023/06/17 05:57:45;;;;;;;;;;;17.00;96.30;;;;;;5070410;28;19931;-40
2023/06/17 06:00:14;;;;;;;;;;;17.00;97.00;;;;;;5088691;28;19933;-40
2023/06/17 06:02:41;;;;;;;;;;;17.00;96.40;;;;;;5056611;28;20034;-40
2023/06/17 06:05:08;;;;;;;;;;;17.00;96.30;;;;;;5056777;28;19977;-39
2023/06/17 06:07:34;;;;;;;;;;;17.00;96.40;;;;;;5079668;28;19928;-39
2023/06/17 06:10:03;;;;;;;;;;;17.00;96.60;;;;;;5074041;28;19960;-41
2023/06/17 06:12:29;;;;;;;;;;;17.00;96.00;;;;;;5075359;28;19924;-40
2023/06/17 06:14:57;;;;;;;;;;;17.00;96.80;;;;;;5056749;28;20025;-40
2023/06/17 06:17:25;;;;;;;;;;;17.10;97.30;;;;;;5074407;28;20023;-39
2023/06/17 06:19:52;;;;;;;;;;;17.00;97.50;;;;;;5076439;28;19946;-39
2023/06/17 06:22:19;;;;;;;;;;;17.00;97.30;;;;;;5080226;28;20432;-40
2023/06/17 06:24:45;;;;;;;;;;;17.00;97.80;;;;;;5080306;28;19978;-41
2023/06/17 06:27:12;;;;;;;;;;;17.10;97.20;;;;;;5081532;28;19991;-41
2023/06/17 06:29:39;;;;;;;;;;;17.10;97.00;;;;;;5052688;28;19925;-41
2023/06/17 06:32:06;;;;;;;;;;;17.20;96.40;;;;;;5073243;28;19967;-41
2023/06/17 06:34:34;;;;;;;;;;;17.20;97.90;;;;;;5055903;28;19975;-40
2023/06/17 06:37:01;;;;;;;;;;;17.20;97.00;;;;;;5076600;28;19924;-41
2023/06/17 06:39:28;;;;;;;;;;;17.30;97.10;;;;;;5072825;28;19963;-40
2023/06/17 06:41:54;;;;;;;;;;;17.30;97.60;;;;;;5072455;28;19971;-41
2023/06/17 06:44:21;;;;;;;;;;;17.40;97.30;;;;;;5075640;28;20430;-40
2023/06/17 06:46:47;;;;;;;;;;;17.40;97.50;;;;;;5073667;28;19978;-40
2023/06/17 06:49:14;;;;;;;;;;;17.50;97.00;;;;;;5071081;28;19975;-38
2023/06/17 06:51:42;;;;;;;;;;;17.60;97.00;;;;;;5081797;28;19924;-42
2023/06/17 06:54:09;;;;;;;;;;;17.60;97.10;;;;;;5061139;28;20012;-40
2023/06/17 06:56:35;;;;;;;;;;;17.70;97.10;;;;;;5062680;28;20372;-41
2023/06/17 06:59:02;;;;;;;;;;;17.70;97.20;;;;;;5075322;28;19924;-40
2023/06/17 07:01:29;;;;;;;;;;;17.80;97.60;;;;;;5055375;28;19974;-40
2023/06/17 07:03:56;;;;;;;;;;;17.80;98.50;;;;;;5051572;28;19928;-40
2023/06/17 07:06:22;;;;;;;;;;;17.80;97.60;;;;;;5046886;28;20464;-39
2023/06/17 07:08:50;;;;;;;;;;;17.90;96.90;;;;;;5068839;28;20017;-41
2023/06/17 07:11:17;;;;;;;;;;;18.00;97.20;;;;;;5068371;28;19991;-40
2023/06/17 07:13:43;;;;;;;;;;;18.20;97.20;;;;;;5064241;28;19933;-40
2023/06/17 07:16:10;;;;;;;;;;;18.20;97.30;;;;;;5050824;28;19931;-42
2023/06/17 07:18:37;;;;;;;;;;;18.30;97.20;;;;;;5070067;28;19925;-41
2023/06/17 07:21:03;;;;;;;;;;;18.40;96.60;;;;;;5056172;28;19976;-41
2023/06/17 07:23:30;;;;;;;;;;;18.50;97.00;;;;;;5051026;28;20317;-41
2023/06/17 07:25:58;;;;;;;;;;;18.70;97.00;;;;;;5069174;28;20287;-41
2023/06/17 07:28:25;;;;;;;;;;;18.80;97.00;;;;;;5067844;28;19929;-40
2023/06/17 07:30:51;;;;;;;;;;;18.80;97.40;;;;;;5073940;28;20055;-39
2023/06/17 07:33:18;;;;;;;;;;;18.90;97.20;;;;;;5055372;28;19978;-41
2023/06/17 07:35:45;;;;;;;;;;;18.90;96.90;;;;;;5053755;28;19928;-41
2023/06/17 07:38:11;;;;;;;;;;;19.00;96.90;;;;;;5070992;28;19979;-41
2023/06/17 07:40:38;;;;;;;;;;;19.00;96.60;;;;;;5052945;28;19972;-40
2023/06/17 07:43:06;;;;;;;;;;;19.10;96.70;;;;;;5064246;28;20007;-40
2023/06/17 07:45:32;;;;;;;;;;;19.20;96.20;;;;;;5054425;28;19982;-41
2023/06/17 07:47:59;;;;;;;;;;;19.40;96.90;;;;;;5053290;28;19978;-40
2023/06/17 07:50:26;;;;;;;;;;;19.40;96.30;;;;;;5067496;28;20362;-40
2023/06/17 07:52:52;;;;;;;;;;;19.50;96.70;;;;;;5055594;28;19975;-39
2023/06/17 07:55:20;;;;;;;;;;;19.70;96.30;;;;;;5056849;28;19932;-41
2023/06/17 07:57:47;;;;;;;;;;;19.80;96.30;;;;;;5076575;28;19924;-40
2023/06/17 08:00:15;;;;;;;;;;;19.90;96.10;;;;;;5076091;28;20384;-38
2023/06/17 08:02:42;;;;;;;;;;;20.00;96.10;;;;;;5069349;28;19964;-41
2023/06/17 08:05:09;;;;;;;;;;;20.00;95.70;;;;;;5057637;28;20367;-40
2023/06/17 08:07:36;;;;;;;;;;;20.10;95.60;;;;;;5050221;28;20443;-41
2023/06/17 08:10:02;;;;;;;;;;;20.10;95.30;;;;;;5071402;28;20003;-40
2023/06/17 08:12:29;;;;;;;;;;;20.30;95.80;;;;;;5058150;28;19978;-41
2023/06/17 08:14:55;;;;;;;;;;;20.50;95.70;;;;;;5057691;28;20352;-40
2023/06/17 08:17:23;;;;;;;;;;;20.80;95.30;;;;;;5039814;28;19964;-40
2023/06/17 08:19:50;;;;;;;;;;;21.00;95.10;;;;;;5059707;28;19956;-38
2023/06/17 08:22:17;;;;;;;;;;;21.20;94.50;;;;;;5062005;28;19924;-39
2023/06/17 08:24:43;;;;;;;;;;;21.30;94.50;;;;;;5069353;28;19924;-40
2023/06/17 08:27:10;;;;;;;;;;;21.30;94.10;;;;;;5068984;28;19978;-41
2023/06/17 08:29:37;;;;;;;;;;;21.30;94.10;;;;;;5052864;28;20027;-40
2023/06/17 08:32:04;;;;;;;;;;;21.40;94.20;;;;;;5045524;28;19946;-40
2023/06/17 08:34:33;;;;;;;;;;;21.60;94.20;;;;;;5072019;28;20012;-40
2023/06/17 08:37:03;;;;;;;;;;;21.80;93.70;;;;;;5090534;28;20352;-40
2023/06/17 08:39:30;;;;;;;;;;;22.10;93.50;;;;;;5081217;28;21397;-40
2023/06/17 08:41:57;;;;;;;;;;;22.30;93.10;;;;;;5068423;28;19931;-36
2023/06/17 08:44:23;;;;;;;;;;;22.40;92.80;;;;;;5059315;28;20015;-40
2023/06/17 08:46:51;;;;;;;;;;;22.60;92.70;;;;;;5058272;28;20419;-40
2023/06/17 08:49:18;;;;;;;;;;;22.80;92.20;;;;;;5062039;28;19931;-40
2023/06/17 08:51:46;;;;;;;;;;;22.90;92.00;;;;;;5055821;28;20023;-40
2023/06/17 08:54:13;;;;;;;;;;;23.10;91.70;;;;;;5056309;28;19925;-39
2023/06/17 08:56:40;;;;;;;;;;;23.20;91.30;;;;;;5074430;28;20003;-40
2023/06/17 08:59:06;;;;;;;;;;;23.40;91.40;;;;;;5065060;28;19928;-40
2023/06/17 09:01:34;;;;;;;;;;;23.50;91.10;;;;;;5075122;28;20001;-41
2023/06/17 09:04:00;;;;;;;;;;;23.70;90.90;;;;;;5073379;28;19925;-38
2023/06/17 09:06:28;;;;;;;;;;;23.80;90.40;;;;;;5072129;28;19931;-38
2023/06/17 09:08:56;;;;;;;;;;;23.90;90.50;;;;;;5054779;28;19924;-41
2023/06/17 09:11:23;;;;;;;;;;;24.10;90.20;;;;;;5073615;28;19925;-41
2023/06/17 09:13:51;;;;;;;;;;;24.30;90.00;;;;;;5073451;28;20379;-40
2023/06/17 09:16:18;;;;;;;;;;;24.30;89.30;;;;;;5056751;28;20011;-41
2023/06/17 09:18:45;;;;;;;;;;;24.40;88.70;;;;;;5074661;28;19932;-42
2023/06/17 09:21:14;;;;;;;;;;;24.40;88.00;;;;;;5074545;28;19925;-41
2023/06/17 09:23:41;;;;;;;;;;;24.40;87.60;;;;;;5073432;28;19924;-40
2023/06/17 09:26:09;;;;;;;;;;;24.50;88.40;;;;;;5072013;28;19978;-41
2023/06/17 09:28:35;;;;;;;;;;;24.70;87.80;;;;;;5036507;28;20365;-41
2023/06/17 09:31:04;;;;;;;;;;;24.90;86.80;;;;;;5054111;28;19924;-39
2023/06/17 09:33:30;;;;;;;;;;;25.00;86.50;;;;;;5037362;28;19925;-41
2023/06/17 09:36:00;;;;;;;;;;;25.10;86.20;;;;;;5070340;28;19924;-41
2023/06/17 09:38:27;;;;;;;;;;;25.10;85.50;;;;;;5056350;28;19998;-40
2023/06/17 09:40:54;;;;;;;;;;;25.10;84.70;;;;;;5072865;28;20442;-41
2023/06/17 09:43:23;;;;;;;;;;;25.20;85.50;;;;;;5073874;28;19987;-41
2023/06/17 09:45:50;;;;;;;;;;;25.40;85.20;;;;;;5073018;28;19931;-39
2023/06/17 09:48:17;;;;;;;;;;;25.40;84.00;;;;;;5054805;28;19928;-41
2023/06/17 09:50:44;;;;;;;;;;;25.40;84.40;;;;;;5066647;28;20289;-41
2023/06/17 09:53:11;;;;;;;;;;;25.60;84.80;;;;;;5037576;28;19969;-41
2023/06/17 09:55:38;;;;;;;;;;;25.80;84.60;;;;;;5056365;28;19932;-42
2023/06/17 09:58:04;;;;;;;;;;;26.10;84.30;;;;;;5073727;28;20460;-41
2023/06/17 10:00:32;;;;;;;;;;;26.30;83.20;;;;;;5059589;28;20369;-41
2023/06/17 10:03:01;;;;;;;;;;;26.50;82.40;;;;;;5053899;28;19924;-41
2023/06/17 10:05:27;;;;;;;;;;;26.70;82.10;;;;;;5062718;28;19925;-40
2023/06/17 10:07:54;;;;;;;;;;;26.80;81.90;;;;;;5072127;28;20012;-41
2023/06/17 10:10:21;;;;;;;;;;;26.90;80.20;;;;;;5055509;28;19940;-40
2023/06/17 10:12:48;;;;;;;;;;;26.90;79.60;;;;;;5053038;28;19928;-40
2023/06/17 10:15:15;;;;;;;;;;;26.90;79.70;;;;;;5072560;28;20376;-40
2023/06/17 10:17:43;;;;;;;;;;;27.00;80.50;;;;;;5045325;28;19968;-40
2023/06/17 10:20:10;;;;;;;;;;;27.20;80.30;;;;;;5058311;28;19931;-41
2023/06/17 10:22:37;;;;;;;;;;;27.30;78.30;;;;;;5054246;28;19933;-41
2023/06/17 10:25:04;;;;;;;;;;;27.40;79.00;;;;;;5053974;28;19925;-41
2023/06/17 10:27:31;;;;;;;;;;;27.60;79.20;;;;;;5070934;28;19968;-42
2023/06/17 10:29:58;;;;;;;;;;;27.70;78.70;;;;;;5072252;28;19924;-42
2023/06/17 10:32:25;;;;;;;;;;;27.80;77.60;;;;;;5071991;28;19971;-39
2023/06/17 10:35:10;;;;;;;;;;;28.00;77.90;;;;;;5072151;28;19979;-41
2023/06/17 10:37:39;;;;;;;;;;;28.10;76.70;;;;;;5071075;28;19934;-41
2023/06/17 10:40:19;;;;;;;;;;;28.10;76.50;;;;;;5052291;28;20012;-42
2023/06/17 10:42:53;;;;;;;;;;;28.30;76.70;;;;;;5070598;28;19975;-39
2023/06/17 10:45:19;;;;;;;;;;;28.40;76.50;;;;;;5065374;28;20353;-41
2023/06/17 10:47:46;;;;;;;;;;;28.60;76.50;;;;;;5071012;28;20011;-41
2023/06/17 10:50:12;;;;;;;;;;;28.80;76.10;;;;;;5054461;28;19964;-40
2023/06/17 10:52:40;;;;;;;;;;;28.80;74.50;;;;;;5055166;28;19978;-41
2023/06/17 10:55:08;;;;;;;;;;;28.80;74.30;;;;;;5036765;28;19964;-41
2023/06/17 10:57:35;;;;;;;;;;;28.80;74.30;;;;;;5047999;28;19970;-39
2023/06/17 11:00:07;;;;;;;;;;;28.90;74.90;;;;;;5071634;28;20337;-40
2023/06/17 11:02:35;;;;;;;;;;;29.00;73.80;;;;;;5071347;28;19951;-42
2023/06/17 11:05:02;;;;;;;;;;;29.10;73.90;;;;;;5047734;28;19975;-39
2023/06/17 11:07:29;;;;;;;;;;;29.10;72.30;;;;;;5071663;28;19931;-40
2023/06/17 11:09:57;;;;;;;;;;;29.20;72.30;;;;;;5071743;28;19932;-41
2023/06/17 11:12:24;;;;;;;;;;;29.30;72.10;;;;;;5062785;28;20007;-41
2023/06/17 11:14:50;;;;;;;;;;;29.30;71.90;;;;;;5053234;28;20487;-41
2023/06/17 11:17:17;;;;;;;;;;;29.40;71.50;;;;;;5066636;28;19932;-41
2023/06/17 11:19:44;;;;;;;;;;;29.60;72.20;;;;;;5054068;28;19960;-41
2023/06/17 11:22:11;;;;;;;;;;;29.80;72.60;;;;;;5059900;28;19929;-42
2023/06/17 11:24:39;;;;;;;;;;;30.00;70.60;;;;;;5066921;28;20677;-42
2023/06/17 11:27:10;;;;;;;;;;;30.20;68.70;;;;;;5086568;28;19931;-42
2023/06/17 11:29:40;;;;;;;;;;;30.40;69.80;;;;;;5085328;28;19938;-40
2023/06/17 11:32:08;;;;;;;;;;;30.50;70.00;;;;;;5074162;28;20015;-41
2023/06/17 11:34:34;;;;;;;;;;;30.50;69.30;;;;;;5071312;28;19924;-42
2023/06/17 11:37:01;;;;;;;;;;;30.60;68.70;;;;;;5044823;28;20024;-40
2023/06/17 11:39:28;;;;;;;;;;;30.70;68.60;;;;;;5052565;28;19931;-41
2023/06/17 11:42:00;;;;;;;;;;;30.80;68.20;;;;;;5069566;28;19982;-41
2023/06/17 11:44:29;;;;;;;;;;;30.90;66.80;;;;;;5070750;28;19928;-41
2023/06/17 11:46:56;;;;;;;;;;;30.80;67.60;;;;;;5070635;28;20407;-41
2023/06/17 11:49:24;;;;;;;;;;;30.80;67.10;;;;;;5039210;28;20266;-42
2023/06/17 11:51:51;;;;;;;;;;;30.90;66.50;;;;;;5061429;28;19924;-41
2023/06/17 11:54:18;;;;;;;;;;;31.00;67.30;;;;;;5070059;28;20439;-42
2023/06/17 11:56:44;;;;;;;;;;;31.10;67.30;;;;;;5067825;28;19997;-42
2023/06/17 11:59:11;;;;;;;;;;;31.20;67.20;;;;;;5071518;28;19925;-42
2023/06/17 12:01:39;;;;;;;;;;;31.40;65.40;;;;;;5051071;28;20402;-42
2023/06/17 12:04:06;;;;;;;;;;;31.50;66.00;;;;;;5070571;28;19968;-42
2023/06/17 12:06:33;;;;;;;;;;;31.60;65.70;;;;;;5053876;28;19968;-41
2023/06/17 12:09:00;;;;;;;;;;;31.70;66.20;;;;;;5073244;28;19976;-42
2023/06/17 12:11:27;;;;;;;;;;;31.90;64.70;;;;;;5056900;28;20019;-41
2023/06/17 12:13:55;;;;;;;;;;;32.00;64.80;;;;;;5073215;28;20020;-42
2023/06/17 12:16:23;;;;;;;;;;;32.00;64.20;;;;;;5050576;28;20305;-41
2023/06/17 12:18:51;;;;;;;;;;;32.00;64.30;;;;;;5075607;28;19930;-39
2023/06/17 12:21:19;;;;;;;;;;;32.10;64.10;;;;;;5074252;28;19967;-42
2023/06/17 12:23:45;;;;;;;;;;;32.20;64.60;;;;;;5055452;28;19933;-42
2023/06/17 12:26:12;;;;;;;;;;;32.30;64.30;;;;;;5072841;28;19932;-42
2023/06/17 12:28:40;;;;;;;;;;;32.30;62.20;;;;;;5090159;28;20401;-42
2023/06/17 12:31:06;;;;;;;;;;;32.30;62.30;;;;;;5071644;28;19925;-42
2023/06/17 12:33:33;;;;;;;;;;;32.40;62.40;;;;;;5055340;28;19924;-41
2023/06/17 12:36:01;;;;;;;;;;;32.50;62.30;;;;;;5066413;28;19925;-42
2023/06/17 12:38:28;;;;;;;;;;;32.60;61.60;;;;;;5071031;28;19972;-40
2023/06/17 12:40:55;;;;;;;;;;;32.70;61.70;;;;;;5070893;28;20404;-42
2023/06/17 12:43:21;;;;;;;;;;;32.80;61.10;;;;;;5057558;28;20167;-43
2023/06/17 12:45:48;;;;;;;;;;;32.90;60.80;;;;;;5045594;28;20016;-42
2023/06/17 12:48:14;;;;;;;;;;;33.00;60.00;;;;;;5073761;28;19982;-40
2023/06/17 12:50:41;;;;;;;;;;;33.10;61.10;;;;;;5066670;28;20011;-43
2023/06/17 12:53:10;;;;;;;;;;;33.20;59.10;;;;;;5078696;28;20395;-44
2023/06/17 12:55:36;;;;;;;;;;;33.20;59.90;;;;;;5056318;28;19978;-42
2023/06/17 12:58:04;;;;;;;;;;;33.30;60.60;;;;;;5047236;28;19975;-41
2023/06/17 13:00:30;;;;;;;;;;;33.40;59.90;;;;;;5042614;28;19975;-43
2023/06/17 13:02:57;;;;;;;;;;;33.50;60.20;;;;;;5059839;28;19928;-43
2023/06/17 13:05:24;;;;;;;;;;;33.60;58.00;;;;;;5072226;28;20037;-42
2023/06/17 13:07:50;;;;;;;;;;;33.50;58.60;;;;;;5057379;28;19993;-42
2023/06/17 13:10:18;;;;;;;;;;;33.50;59.10;;;;;;5072618;28;19966;-43
2023/06/17 13:12:45;;;;;;;;;;;33.50;59.10;;;;;;5067990;28;19932;-43
2023/06/17 13:15:12;;;;;;;;;;;33.50;55.90;;;;;;5042300;28;19925;-42
2023/06/17 13:17:38;;;;;;;;;;;33.50;56.70;;;;;;5052848;28;19935;-41
2023/06/17 13:20:06;;;;;;;;;;;33.50;57.40;;;;;;5069223;28;19970;-42
2023/06/17 13:22:34;;;;;;;;;;;33.50;57.00;;;;;;5064654;28;19932;-41
2023/06/17 13:25:00;;;;;;;;;;;33.60;57.50;;;;;;5060694;28;19924;-42
2023/06/17 13:27:28;;;;;;;;;;;33.70;54.10;;;;;;5049468;28;19990;-41
2023/06/17 13:29:55;;;;;;;;;;;33.80;56.30;;;;;;5069206;28;20012;-42
2023/06/17 13:32:22;;;;;;;;;;;33.90;56.50;;;;;;5076271;28;20007;-42
2023/06/17 13:34:48;;;;;;;;;;;33.90;56.00;;;;;;5071648;28;20007;-39
2023/06/17 13:37:15;;;;;;;;;;;33.90;56.60;;;;;;5052185;28;20392;-41
2023/06/17 13:39:43;;;;;;;;;;;34.00;55.40;;;;;;5048703;28;19971;-41
2023/06/17 13:42:10;;;;;;;;;;;34.00;55.60;;;;;;5045593;28;19933;-42
2023/06/17 13:44:38;;;;;;;;;;;34.00;56.50;;;;;;5043948;28;19932;-40
2023/06/17 13:47:05;;;;;;;;;;;34.10;55.00;;;;;;5072311;28;19968;-42
2023/06/17 13:49:32;;;;;;;;;;;34.10;56.30;;;;;;5051951;28;19979;-42
2023/06/17 13:51:58;;;;;;;;;;;34.20;54.70;;;;;;5064004;28;19924;-41
2023/06/17 13:54:26;;;;;;;;;;;34.20;54.10;;;;;;5073874;28;19960;-42
2023/06/17 13:56:53;;;;;;;;;;;34.20;54.40;;;;;;5076728;28;19930;-42
2023/06/17 13:59:20;;;;;;;;;;;34.30;53.10;;;;;;5054533;28;20015;-42
2023/06/17 14:01:48;;;;;;;;;;;34.50;55.50;;;;;;5060477;28;19928;-42
2023/06/17 14:04:14;;;;;;;;;;;34.50;54.50;;;;;;5084175;28;19971;-39
2023/06/17 14:06:46;;;;;;;;;;;34.50;55.00;;;;;;5067303;28;19938;-42
2023/06/17 14:09:12;;;;;;;;;;;34.50;55.30;;;;;;5068362;28;20297;-42
2023/06/17 14:11:39;;;;;;;;;;;34.50;54.40;;;;;;5053600;28;20438;-42
2023/06/17 14:14:06;;;;;;;;;;;34.60;55.10;;;;;;5052088;28;20464;-42
2023/06/17 14:16:32;;;;;;;;;;;34.70;54.70;;;;;;5044441;28;20279;-41